KGJT

Grand Junction Regional Airport

Grand Junction, Colorado, USA
METAR KGJT 171453Z 00000KT 10SM CLR M04/M07 A3024 RMK AO2 SLP260 T10391072 56012
Observed Flight Rules
Dec-17 @ 14:53 UTC (53 minutes ago) Visual Flight Rules
Visibility Clouds
10 miles
  • Clear skies
Temperatures Readings
Current -4°C / 25°F
Dewpoint -7°C / 19°F
Humidity 80%
Altimeter 30.24" Hg
Pressure 1026 hPa
Elevation 1475
METAR KGJT 171453Z 00000KT 10SM CLR M04/M07 A3024 RMK AO2 SLP260 T10391072 56012
Observed Flight Rules
Dec-17 @ 14:53 UTC
(53 minutes ago)
VFR
Clouds
  • Clear skies
Temperature Dewpoint
-4°C / 25°F -7°C / 19°F
Humidity Altimeter Pressure
80% 30.24" Hg 1026 hPa